Time;durP1;ratioP1;P1;durP2;ratioP2;P2;SDS_P1;SDS_P2;PMS_P1;PMS_P2;Temp;Humidity;BMP_temperature;BMP_pressure;BME280_temperature;BME280_humidity;BME280_pressure;Samples;Min_cycle;Max_cycle;Signal;HPM_P1;HPM_P2
2022/10/03 00:00:21;;;;;;;57.35;15.75;;;;;;;11.44;100.00;100637.63;12212444;19;20080;-82
2022/10/03 00:04:37;;;;;;;57.78;14.60;;;;;;;11.33;100.00;100633.72;12189939;19;20038;-83
2022/10/03 00:09:17;;;;;;;60.40;15.02;;;;;;;11.25;100.00;100645.97;12208906;19;20030;-84
2022/10/03 00:13:34;;;;;;;62.40;15.93;;;;;;;11.21;100.00;100647.47;12187869;19;20034;-83
2022/10/03 00:17:56;;;;;;;59.83;15.40;;;;;;;11.15;100.00;100649.28;12212976;19;20491;-81
2022/10/03 00:22:35;;;;;;;59.22;15.02;;;;;;;11.11;100.00;100645.28;12190982;19;20017;-82
2022/10/03 00:26:44;;;;;;;54.00;15.50;;;;;;;11.08;100.00;100639.41;12208784;19;20003;-83
2022/10/03 00:30:56;;;;;;;62.00;15.48;;;;;;;11.03;100.00;100644.78;12190316;19;20042;-82
2022/10/03 00:35:30;;;;;;;66.97;15.60;;;;;;;10.94;100.00;100649.75;12255399;19;20031;-78
2022/10/03 00:39:54;;;;;;;53.58;15.13;;;;;;;10.86;100.00;100653.69;12262757;19;20007;-78
2022/10/03 00:44:43;;;;;;;49.15;14.00;;;;;;;10.79;100.00;100655.66;12237543;19;20811;-78
2022/10/03 00:49:06;;;;;;;69.65;15.68;;;;;;;10.70;100.00;100652.38;12243162;19;20007;-80
2022/10/03 00:53:23;;;;;;;61.50;16.90;;;;;;;10.66;100.00;100653.09;12214281;19;20058;-80
2022/10/03 00:58:02;;;;;;;53.08;15.77;;;;;;;10.66;100.00;100658.59;12213496;19;20010;-80
2022/10/03 01:02:32;;;;;;;49.88;14.27;;;;;;;10.59;100.00;100653.16;12185911;19;20010;-80
2022/10/03 01:07:05;;;;;;;45.25;14.27;;;;;;;10.53;100.00;100667.88;12210020;19;20015;-80
2022/10/03 01:11:13;;;;;;;50.38;13.05;;;;;;;10.45;100.00;100666.25;12184553;19;20499;-80
2022/10/03 01:15:53;;;;;;;44.78;14.07;;;;;;;10.45;100.00;100677.25;12208325;19;20019;-80
2022/10/03 01:20:07;;;;;;;49.13;15.20;;;;;;;10.40;100.00;100679.84;12188133;19;20023;-79
2022/10/03 01:24:31;;;;;;;46.45;14.55;;;;;;;10.39;100.00;100682.84;12217927;19;20010;-79
2022/10/03 01:33:22;;;;;;;45.45;13.60;;;;;;;10.30;100.00;100685.06;12215682;19;20015;-79
2022/10/03 01:37:50;;;;;;;48.63;13.02;;;;;;;10.28;100.00;100687.19;12196137;19;20034;-80
2022/10/03 01:42:30;;;;;;;39.28;13.85;;;;;;;10.23;100.00;100690.59;12209684;19;20014;-79
2022/10/03 01:46:45;;;;;;;50.22;14.88;;;;;;;10.19;100.00;100708.63;12193006;19;20714;-79
2022/10/03 01:51:12;;;;;;;55.05;14.82;;;;;;;10.17;100.00;100712.66;12218712;19;20007;-79
2022/10/03 01:55:35;;;;;;;49.63;13.82;;;;;;;10.12;100.00;100713.34;12194047;19;20018;-80
2022/10/03 01:59:48;;;;;;;41.70;14.20;;;;;;;10.10;100.00;100714.66;12213642;19;20011;-80
2022/10/03 02:04:16;;;;;;;53.65;15.95;;;;;;;10.10;100.00;100726.50;12194127;19;20357;-79
2022/10/03 02:08:39;;;;;;;77.88;17.17;;;;;;;10.15;100.00;100717.59;12203224;19;20006;-79
2022/10/03 02:12:59;;;;;;;81.55;17.65;;;;;;;10.19;100.00;100727.06;12218489;19;20003;-79
2022/10/03 02:17:13;;;;;;;119.82;22.30;;;;;;;10.18;100.00;100730.91;12195729;19;20014;-80
2022/10/03 02:21:19;;;;;;;104.65;21.92;;;;;;;10.22;100.00;100732.97;12213174;19;20024;-79
2022/10/03 02:25:24;;;;;;;83.90;19.63;;;;;;;10.23;100.00;100722.78;12189388;19;20006;-79
2022/10/03 02:30:01;;;;;;;61.50;15.45;;;;;;;10.19;100.00;100722.41;12211499;19;20408;-79
2022/10/03 02:34:23;;;;;;;47.92;15.50;;;;;;;10.15;100.00;100723.09;12187141;19;20078;-79
2022/10/03 02:38:40;;;;;;;44.05;14.57;;;;;;;10.09;100.00;100718.47;12210800;19;20018;-79
2022/10/03 02:42:59;;;;;;;50.38;14.77;;;;;;;10.04;100.00;100717.22;12212340;19;20021;-79
2022/10/03 02:47:35;;;;;;;53.15;15.82;;;;;;;9.98;100.00;100720.88;12192514;19;20487;-79
2022/10/03 02:51:43;;;;;;;52.13;16.00;;;;;;;9.94;100.00;100722.41;12213131;19;20010;-79
2022/10/03 02:56:24;;;;;;;57.90;16.17;;;;;;;9.90;100.00;100721.13;12184836;19;20003;-79
2022/10/03 03:00:47;;;;;;;66.18;15.38;;;;;;;9.86;100.00;100722.66;12211858;19;20035;-79
2022/10/03 03:05:22;;;;;;;53.97;16.52;;;;;;;9.82;100.00;100733.28;12189238;19;20025;-79
2022/10/03 03:09:51;;;;;;;54.20;14.80;;;;;;;9.78;100.00;100739.44;12208466;19;20023;-78
2022/10/03 03:14:28;;;;;;;62.22;15.75;;;;;;;9.73;100.00;100742.03;12185729;19;20034;-79
2022/10/03 03:18:43;;;;;;;58.80;15.25;;;;;;;9.69;100.00;100746.28;12211971;19;20368;-79
2022/10/03 03:22:54;;;;;;;67.35;18.27;;;;;;;9.67;100.00;100745.69;12187609;19;20050;-79
2022/10/03 03:27:21;;;;;;;45.97;15.25;;;;;;;9.65;100.00;100748.63;12209305;19;20011;-79
2022/10/03 03:31:43;;;;;;;63.65;16.95;;;;;;;9.63;100.00;100752.66;12182705;19;20034;-77
2022/10/03 03:36:16;;;;;;;80.00;18.48;;;;;;;9.61;100.00;100749.28;12207119;19;20014;-78
2022/10/03 03:40:34;;;;;;;56.73;15.73;;;;;;;9.57;100.00;100752.47;12186785;19;20007;-78
2022/10/03 03:45:09;;;;;;;55.83;15.55;;;;;;;9.54;100.00;100754.84;12207541;19;20409;-78
2022/10/03 03:49:30;;;;;;;67.13;19.13;;;;;;;9.51;100.00;100755.28;12185237;19;20018;-78
2022/10/03 03:53:55;;;;;;;57.55;17.60;;;;;;;9.46;100.00;100752.31;12207932;19;20518;-78
2022/10/03 03:58:09;;;;;;;65.70;19.40;;;;;;;9.43;100.00;100753.63;12185721;19;20030;-78
2022/10/03 04:02:41;;;;;;;62.70;17.98;;;;;;;9.38;100.00;100760.84;12205456;19;20002;-78
2022/10/03 04:06:53;;;;;;;65.05;16.77;;;;;;;9.34;100.00;100764.03;12208248;19;20010;-79
2022/10/03 04:11:31;;;;;;;70.20;18.10;;;;;;;9.30;100.00;100754.53;12183649;19;20779;-78
2022/10/03 04:15:41;;;;;;;87.45;19.10;;;;;;;9.29;100.00;100757.50;12207404;19;20007;-78
2022/10/03 04:20:15;;;;;;;60.22;17.25;;;;;;;9.27;100.00;100773.38;12186092;19;20007;-78
2022/10/03 04:24:44;;;;;;;78.00;18.02;;;;;;;9.24;100.00;100771.91;12206943;19;20007;-79
2022/10/03 04:29:15;;;;;;;67.35;19.70;;;;;;;9.22;100.00;100781.44;12184740;19;20417;-78
2022/10/03 04:33:40;;;;;;;67.47;19.05;;;;;;;9.19;100.00;100787.34;12206116;19;20011;-78
2022/10/03 04:38:20;;;;;;;73.00;18.95;;;;;;;9.22;100.00;100793.28;12185676;19;20034;-78
2022/10/03 04:42:57;;;;;;;71.03;18.58;;;;;;;9.22;100.00;100790.53;12206079;19;20705;-78
2022/10/03 04:47:14;;;;;;;72.85;18.85;;;;;;;9.19;100.00;100790.09;12182685;19;20014;-78
2022/10/03 04:51:18;;;;;;;71.35;18.42;;;;;;;9.20;100.00;100789.06;12205347;19;20015;-78
2022/10/03 04:55:44;;;;;;;69.25;18.67;;;;;;;9.23;100.00;100788.63;12193386;19;20011;-78
2022/10/03 04:59:58;;;;;;;74.50;21.17;;;;;;;9.26;100.00;100790.94;12230393;19;20033;-78
2022/10/03 05:04:25;;;;;;;78.68;19.95;;;;;;;9.26;100.00;100789.03;12207951;19;20066;-78
2022/10/03 05:08:52;;;;;;;65.03;19.33;;;;;;;9.22;100.00;100790.53;12231466;19;20017;-78
2022/10/03 05:13:20;;;;;;;78.53;20.95;;;;;;;9.20;100.00;100794.56;12211101;19;20062;-78
2022/10/03 05:18:00;;;;;;;74.43;20.92;;;;;;;9.21;100.00;100799.00;12225681;19;20019;-78
2022/10/03 05:22:26;;;;;;;82.85;19.90;;;;;;;9.17;100.00;100798.59;12205432;19;20010;-78
2022/10/03 05:26:46;;;;;;;74.70;18.77;;;;;;;9.12;100.00;100807.47;12227208;19;20007;-77
2022/10/03 05:30:54;;;;;;;72.00;20.40;;;;;;;9.11;100.00;100805.78;12206034;19;20019;-78
2022/10/03 05:35:20;;;;;;;73.40;20.45;;;;;;;9.16;100.00;100802.41;12227830;19;20026;-78
2022/10/03 05:39:31;;;;;;;84.45;21.95;;;;;;;9.26;100.00;100816.53;12225363;19;20640;-78
2022/10/03 05:44:02;;;;;;;77.47;21.52;;;;;;;9.28;100.00;100797.94;12203991;19;20002;-77
2022/10/03 05:48:42;;;;;;;72.88;20.17;;;;;;;9.26;100.00;100810.19;12272028;19;20010;-79
2022/10/03 05:52:44;;;;;;;74.85;20.38;;;;;;;9.25;100.00;100822.25;12235885;19;20060;-79
2022/10/03 05:57:13;;;;;;;69.43;19.42;;;;;;;9.29;100.00;100824.34;12229177;19;20030;-79
2022/10/03 06:01:33;;;;;;;90.20;22.23;;;;;;;9.34;100.00;100837.47;12202366;19;20019;-79
2022/10/03 06:06:06;;;;;;;89.60;21.52;;;;;;;9.44;100.00;100837.84;12223661;19;20586;-79
2022/10/03 06:10:27;;;;;;;103.30;23.60;;;;;;;9.58;100.00;100838.66;12188830;19;20018;-78
2022/10/03 06:14:43;;;;;;;89.30;23.00;;;;;;;9.77;100.00;100842.38;12212974;19;20003;-78
2022/10/03 06:19:13;;;;;;;103.93;26.25;;;;;;;9.95;100.00;100838.88;12211536;19;20456;-78
2022/10/03 06:23:24;;;;;;;101.07;26.08;;;;;;;10.12;100.00;100845.56;12188634;19;20035;-78
2022/10/03 06:28:10;;;;;;;102.90;25.13;;;;;;;10.29;100.00;100847.78;12211394;19;20006;-80
2022/10/03 06:32:59;;;;;;;91.88;24.25;;;;;;;10.41;100.00;100846.88;12193110;19;20010;-79
2022/10/03 06:37:42;;;;;;;89.25;21.88;;;;;;;10.58;100.00;100851.81;12192135;19;20459;-78
2022/10/03 06:42:14;;;;;;;122.07;25.35;;;;;;;10.78;100.00;100859.94;12213449;19;20114;-79
2022/10/03 06:46:56;;;;;;;90.22;23.63;;;;;;;10.93;100.00;100858.50;12193972;19;20014;-78
2022/10/03 06:51:16;;;;;;;100.72;23.15;;;;;;;11.11;100.00;100859.59;12214046;19;20037;-78
2022/10/03 06:55:40;;;;;;;105.47;25.42;;;;;;;11.16;100.00;100855.09;12194060;19;20017;-78
2022/10/03 07:00:09;;;;;;;104.75;25.80;;;;;;;11.34;100.00;100870.81;12214364;19;20006;-78
2022/10/03 07:04:39;;;;;;;82.53;23.75;;;;;;;11.53;100.00;100862.53;12188746;19;20015;-78
2022/10/03 07:08:57;;;;;;;87.10;22.90;;;;;;;11.61;100.00;100873.28;12211867;19;20082;-79
2022/10/03 07:13:10;;;;;;;90.03;22.45;;;;;;;11.67;100.00;100869.59;12189440;19;20034;-78
2022/10/03 07:17:30;;;;;;;75.88;24.17;;;;;;;11.74;100.00;100864.81;12196849;19;20051;-78
2022/10/03 07:21:50;;;;;;;81.68;22.77;;;;;;;11.82;100.00;100869.19;12208839;19;20010;-78
2022/10/03 07:25:52;;;;;;;85.03;23.38;;;;;;;11.90;100.00;100874.44;12188216;19;20808;-78
2022/10/03 07:30:17;;;;;;;89.10;24.85;;;;;;;12.03;100.00;100876.16;12209876;19;20365;-78
2022/10/03 07:34:25;;;;;;;83.63;22.38;;;;;;;12.13;100.00;100868.16;12187849;19;20021;-79
2022/10/03 07:39:02;;;;;;;78.57;21.05;;;;;;;12.25;100.00;100882.84;12214323;19;20019;-79
2022/10/03 07:43:38;;;;;;;76.50;22.90;;;;;;;12.40;100.00;100881.56;12188903;19;20011;-79
2022/10/03 07:48:03;;;;;;;76.50;24.30;;;;;;;12.52;100.00;100894.38;12211119;19;20014;-79
2022/10/03 07:52:11;;;;;;;70.50;22.30;;;;;;;12.67;100.00;100902.22;12188265;19;24827;-79
2022/10/03 07:56:46;;;;;;;91.07;26.10;;;;;;;12.73;100.00;100908.69;12224070;19;20011;-80
2022/10/03 08:01:09;;;;;;;52.63;20.27;;;;;;;12.85;100.00;100903.19;12242989;19;20027;-80
2022/10/03 08:05:20;;;;;;;;;;;;;;;12.73;100.00;100905.94;12264582;19;20035;-81
2022/10/03 08:09:49;;;;;;;70.72;21.40;;;;;;;12.91;100.00;100907.78;12213034;19;19943;-81
2022/10/03 08:14:19;;;;;;;64.57;22.08;;;;;;;13.06;100.00;100905.41;12198257;19;20008;-82
2022/10/03 08:19:02;;;;;;;49.75;19.30;;;;;;;13.25;100.00;100917.22;12206920;19;20011;-81
2022/10/03 08:23:30;;;;;;;42.92;18.20;;;;;;;13.49;100.00;100914.44;12182043;19;20633;-81
2022/10/03 08:27:35;;;;;;;46.00;17.42;;;;;;;13.64;100.00;100918.38;12215242;19;19999;-82
2022/10/03 08:31:46;;;;;;;50.33;18.80;;;;;;;13.70;100.00;100911.03;12186613;19;20014;-80
2022/10/03 08:36:16;;;;;;;34.95;14.25;;;;;;;14.00;100.00;100916.38;12208688;19;20018;-81
2022/10/03 08:40:29;;;;;;;37.88;15.05;;;;;;;14.04;100.00;100920.38;12179315;19;20034;-80
2022/10/03 08:44:59;;;;;;;40.00;14.38;;;;;;;14.18;100.00;100911.75;12207465;19;20006;-81
2022/10/03 08:49:25;;;;;;;47.88;16.90;;;;;;;14.31;100.00;100917.84;12186420;19;20100;-82
2022/10/03 08:54:00;;;;;;;33.60;15.50;;;;;;;14.28;100.00;100917.50;12205028;19;20002;-82
2022/10/03 08:58:19;;;;;;;30.95;14.57;;;;;;;14.28;100.00;100918.34;12185931;19;20031;-83
2022/10/03 09:02:33;;;;;;;37.20;16.60;;;;;;;14.44;100.00;100911.16;12207994;19;20014;-82
2022/10/03 09:06:52;;;;;;;39.38;14.93;;;;;;;14.34;100.00;100911.81;12210776;19;20019;-80
2022/10/03 09:11:32;;;;;;;33.20;13.35;;;;;;;14.40;100.00;100915.53;12188307;19;20013;-80
2022/10/03 09:15:44;;;;;;;32.47;13.43;;;;;;;14.94;100.00;100915.13;12210513;19;20484;-82
2022/10/03 09:19:51;;;;;;;27.50;13.13;;;;;;;15.40;100.00;100908.34;12188535;19;20014;-83
2022/10/03 09:24:13;;;;;;;31.75;12.85;;;;;;;15.44;100.00;100917.84;12210843;19;20010;-82
2022/10/03 09:28:48;;;;;;;26.35;11.95;;;;;;;15.29;100.00;100923.19;12187467;19;20066;-81
2022/10/03 09:33:14;;;;;;;25.25;12.68;;;;;;;15.51;100.00;100926.00;12210847;19;20025;-80
2022/10/03 09:37:36;;;;;;;26.38;12.80;;;;;;;15.60;100.00;100931.97;12188081;19;20014;-81
2022/10/03 09:41:55;;;;;;;25.38;9.98;;;;;;;15.47;100.00;100922.91;12214040;19;20074;-80
2022/10/03 09:45:57;;;;;;;17.85;8.90;;;;;;;15.59;100.00;100925.56;12199811;19;20542;-82
2022/10/03 09:50:20;;;;;;;23.25;10.13;;;;;;;15.87;100.00;100919.03;12220941;19;20101;-81
2022/10/03 09:54:44;;;;;;;21.90;10.00;;;;;;;15.73;100.00;100917.72;12223311;19;20373;-81
2022/10/03 09:59:13;;;;;;;20.80;8.30;;;;;;;15.84;100.00;100916.75;12200381;19;20388;-81
2022/10/03 10:03:49;;;;;;;17.60;8.77;;;;;;;16.26;100.00;100920.88;12215832;19;20027;-82
2022/10/03 10:08:28;;;;;;;17.33;7.95;;;;;;;16.29;100.00;100923.97;12178788;19;20407;-81
2022/10/03 10:12:49;;;;;;;18.00;7.00;;;;;;;16.47;100.00;100922.78;12226127;19;19999;-81
2022/10/03 10:17:37;;;;;;;12.93;5.22;;;;;;;16.71;100.00;100917.75;12194875;19;20441;-81
2022/10/03 10:22:09;;;;;;;12.52;4.68;;;;;;;16.52;100.00;100908.09;12220846;19;20007;-81
2022/10/03 10:26:45;;;;;;;15.70;5.20;;;;;;;16.55;100.00;100908.41;12202211;19;20466;-81
2022/10/03 10:31:00;;;;;;;14.77;5.40;;;;;;;16.89;100.00;100888.69;12209693;19;20006;-81
2022/10/03 10:35:24;;;;;;;11.90;4.43;;;;;;;16.88;100.00;100900.13;12220252;19;20121;-81
2022/10/03 10:39:28;;;;;;;;;;;;;;;16.50;100.00;100893.59;12220727;19;20748;-82
2022/10/03 10:44:20;;;;;;;13.65;4.95;;;;;;;16.28;100.00;100893.66;12202013;19;19986;-81
2022/10/03 10:59:45;;;;;;;8.70;4.53;;;;;;;16.27;100.00;100898.41;12249076;19;19995;-82
2022/10/03 11:09:00;;;;;;;8.63;4.30;;;;;;;16.63;100.00;100891.25;12227127;19;20503;-82
2022/10/03 11:13:35;;;;;;;7.40;4.03;;;;;;;16.99;100.00;100897.16;12198800;19;20007;-81
2022/10/03 11:18:19;;;;;;;12.05;4.38;;;;;;;17.04;100.00;100896.34;12219370;19;20015;-83
2022/10/03 11:23:17;;;;;;;9.65;3.63;;;;;;;17.10;100.00;100892.47;12199019;19;20028;-83
2022/10/03 11:27:52;;;;;;;8.88;4.07;;;;;;;16.95;98.66;100889.59;12217762;19;20014;-82
2022/10/03 11:33:04;;;;;;;8.30;3.00;;;;;;;16.93;98.92;100892.66;12198187;19;20063;-83
2022/10/03 11:37:05;;;;;;;9.70;4.63;;;;;;;16.84;100.00;100888.69;12199367;19;20014;-83
2022/10/03 11:41:19;;;;;;;7.45;4.20;;;;;;;17.01;98.45;100882.94;12217788;19;20050;-83
2022/10/03 11:45:41;;;;;;;9.48;3.30;;;;;;;17.20;95.87;100881.44;12217311;19;20010;-84
2022/10/03 11:50:14;;;;;;;9.02;3.80;;;;;;;17.46;92.58;100881.59;12196566;19;20006;-84
2022/10/03 11:54:27;;;;;;;11.02;3.03;;;;;;;17.64;90.17;100872.78;12216955;19;20034;-84
2022/10/03 11:58:59;;;;;;;6.15;2.53;;;;;;;17.74;88.45;100869.19;12194938;19;20061;-84
2022/10/03 12:03:25;;;;;;;11.68;3.10;;;;;;;17.56;84.49;100878.03;12217479;19;20015;-84
2022/10/03 12:12:29;;;;;;;9.80;3.08;;;;;;;17.75;86.06;100866.13;12213646;19;20026;-84
2022/10/03 12:16:55;;;;;;;9.95;3.40;;;;;;;17.99;86.46;100860.97;12193948;19;20091;-83
2022/10/03 12:21:08;;;;;;;6.18;2.85;;;;;;;18.22;85.90;100865.22;12213643;19;20006;-84
2022/10/03 12:25:20;;;;;;;4.97;2.30;;;;;;;18.36;80.82;100857.16;12193645;19;20010;-83
2022/10/03 12:29:25;;;;;;;10.82;3.47;;;;;;;18.50;82.56;100851.88;12212912;19;20011;-83
2022/10/03 12:33:50;;;;;;;8.77;2.75;;;;;;;18.45;76.99;100844.34;12214576;19;20511;-83
2022/10/03 12:38:10;;;;;;;7.80;2.88;;;;;;;18.39;78.59;100855.78;12195430;19;20033;-83
2022/10/03 12:42:25;;;;;;;9.13;3.20;;;;;;;18.29;81.97;100845.41;12215500;19;20075;-83
2022/10/03 12:46:33;;;;;;;9.07;2.92;;;;;;;18.13;81.20;100838.97;12193900;19;20006;-84
2022/10/03 12:50:58;;;;;;;8.45;2.83;;;;;;;17.86;80.57;100839.16;12216890;19;20011;-83
2022/10/03 12:55:30;;;;;;;9.32;3.55;;;;;;;17.70;81.53;100843.81;12197310;19;20542;-84
2022/10/03 12:59:43;;;;;;;6.30;3.00;;;;;;;17.69;81.03;100836.56;12219568;19;20006;-84
2022/10/03 13:04:01;;;;;;;11.85;3.30;;;;;;;17.61;78.31;100830.66;12219924;19;20022;-84
2022/10/03 13:08:38;;;;;;;9.50;3.05;;;;;;;17.80;78.17;100837.47;12201263;19;20018;-84
2022/10/03 13:13:01;;;;;;;9.07;3.42;;;;;;;17.88;77.81;100836.97;12221871;19;20006;-85
2022/10/03 13:17:08;;;;;;;9.27;3.53;;;;;;;17.59;78.81;100828.16;12223163;19;20043;-84
2022/10/03 13:21:19;;;;;;;8.18;3.72;;;;;;;17.35;79.11;100826.94;12258584;19;20031;-85
2022/10/03 13:25:45;;;;;;;10.43;3.60;;;;;;;17.35;78.83;100821.34;12225135;19;20007;-85
2022/10/03 13:29:55;;;;;;;6.78;3.42;;;;;;;17.36;78.58;100823.03;12241751;19;20019;-84
2022/10/03 13:34:09;;;;;;;8.13;3.17;;;;;;;17.70;78.33;100824.31;12220968;19;20030;-83
2022/10/03 13:38:26;;;;;;;7.55;3.40;;;;;;;17.79;73.37;100821.88;12244751;19;20055;-84
2022/10/03 13:42:52;;;;;;;8.57;3.38;;;;;;;17.73;74.67;100818.19;12239340;19;20006;-83
2022/10/03 13:47:22;;;;;;;12.23;4.03;;;;;;;17.94;76.24;100812.72;12215732;19;20007;-83
2022/10/03 13:51:48;;;;;;;9.05;3.50;;;;;;;18.18;73.90;100807.47;12234691;19;20002;-82
2022/10/03 13:55:56;;;;;;;6.82;3.35;;;;;;;18.22;75.45;100798.25;12212140;19;20007;-82
2022/10/03 14:00:11;;;;;;;7.22;3.03;;;;;;;18.17;74.22;100801.06;12234799;19;20014;-84
2022/10/03 14:04:39;;;;;;;8.43;3.83;;;;;;;18.05;71.76;100805.19;12210331;19;20003;-82
2022/10/03 14:09:05;;;;;;;8.00;3.15;;;;;;;17.87;73.22;100804.59;12230445;19;20453;-83
2022/10/03 14:13:53;;;;;;;9.55;3.50;;;;;;;17.61;73.10;100802.78;12214054;19;20015;-83
2022/10/03 14:18:09;;;;;;;6.15;3.35;;;;;;;17.36;75.08;100804.34;12231519;19;20019;-83
2022/10/03 14:22:21;;;;;;;7.72;4.15;;;;;;;17.08;75.92;100805.59;12202475;19;20012;-81
2022/10/03 14:27:01;;;;;;;10.68;4.22;;;;;;;16.84;75.71;100797.66;12231917;19;20055;-83
2022/10/03 14:31:47;;;;;;;8.48;4.20;;;;;;;16.69;77.58;100807.81;12200839;19;20006;-82
2022/10/03 14:36:30;;;;;;;11.57;5.25;;;;;;;16.61;79.08;100812.75;12228780;19;20011;-83
2022/10/03 14:40:40;;;;;;;10.57;5.32;;;;;;;16.69;79.14;100808.66;12203806;19;20002;-82
2022/10/03 14:44:46;;;;;;;13.43;5.60;;;;;;;16.75;79.78;100810.38;12226697;19;20007;-83
2022/10/03 14:48:51;;;;;;;11.82;4.90;;;;;;;16.93;79.66;100808.31;12222722;19;20364;-81
2022/10/03 14:53:03;;;;;;;9.35;4.68;;;;;;;16.90;79.45;100808.84;12199943;19;20018;-83
2022/10/03 14:57:33;;;;;;;10.55;5.00;;;;;;;16.78;79.20;100804.28;12228668;19;20010;-82
2022/10/03 15:01:56;;;;;;;9.07;4.85;;;;;;;16.77;79.90;100805.38;12200987;19;20017;-83
2022/10/03 15:06:09;;;;;;;13.80;5.57;;;;;;;16.72;78.95;100805.31;12224556;19;20006;-83
2022/10/03 15:10:19;;;;;;;15.63;5.53;;;;;;;16.63;79.15;100804.97;12203160;19;20020;-84
2022/10/03 15:14:28;;;;;;;11.80;5.07;;;;;;;16.59;78.49;100797.41;12268082;19;20010;-85
2022/10/03 15:18:30;;;;;;;9.27;5.07;;;;;;;16.71;78.33;100792.50;12263185;19;19999;-86
2022/10/03 15:22:41;;;;;;;6.85;4.95;;;;;;;16.82;77.20;100799.84;12206445;19;20002;-84
2022/10/03 15:26:49;;;;;;;14.10;6.07;;;;;;;16.78;77.59;100790.38;12220446;19;20138;-83
2022/10/03 15:30:54;;;;;;;10.70;5.10;;;;;;;16.83;77.75;100797.91;12216391;19;20014;-83
2022/10/03 15:34:59;;;;;;;13.02;4.97;;;;;;;16.83;77.58;100787.59;12219109;19;20391;-83
2022/10/03 15:39:06;;;;;;;9.48;5.47;;;;;;;16.69;78.04;100791.94;12218002;19;20014;-83
2022/10/03 15:43:30;;;;;;;12.93;5.03;;;;;;;16.56;76.62;100784.88;12197494;19;20006;-83
2022/10/03 15:47:38;;;;;;;10.52;5.05;;;;;;;16.53;77.71;100787.34;12219191;19;20022;-83
2022/10/03 15:51:42;;;;;;;11.15;5.28;;;;;;;16.51;78.03;100778.41;12216189;19;20045;-85
2022/10/03 15:56:05;;;;;;;18.25;5.57;;;;;;;16.48;78.13;100778.94;12200138;19;20011;-84
2022/10/03 16:00:30;;;;;;;11.03;4.80;;;;;;;16.35;79.25;100781.06;12220288;19;20019;-83
2022/10/03 16:04:39;;;;;;;8.43;4.68;;;;;;;16.26;79.06;100784.63;12247645;19;20036;-84
2022/10/03 16:08:57;;;;;;;10.77;5.40;;;;;;;16.22;78.28;100777.91;12253898;19;20019;-83
2022/10/03 16:13:08;;;;;;;9.27;4.68;;;;;;;16.18;78.29;100784.00;12201831;19;20473;-83
2022/10/03 16:17:32;;;;;;;9.05;4.57;;;;;;;16.08;78.80;100780.28;12219984;19;20013;-84
2022/10/03 16:21:46;;;;;;;10.27;4.78;;;;;;;15.86;80.15;100777.56;12212946;19;20530;-85
2022/10/03 16:25:54;;;;;;;11.88;5.15;;;;;;;15.70;80.71;100769.06;12192658;19;20091;-83
2022/10/03 16:30:08;;;;;;;10.48;5.85;;;;;;;15.54;83.46;100763.53;12221669;19;20045;-84
2022/10/03 16:34:15;;;;;;;11.15;5.72;;;;;;;15.25;86.48;100766.50;12200678;19;20003;-82
2022/10/03 16:38:30;;;;;;;12.98;6.25;;;;;;;14.99;88.68;100762.53;12223772;19;20018;-83
2022/10/03 16:42:42;;;;;;;10.88;5.60;;;;;;;14.70;91.09;100771.00;12229486;19;20011;-83
2022/10/03 16:46:45;;;;;;;16.70;5.18;;;;;;;14.44;92.63;100763.34;12205014;19;20010;-83
2022/10/03 16:50:50;;;;;;;;;;;;;;;14.21;94.68;100767.94;12224642;19;20011;-83
2022/10/03 16:55:01;;;;;;;14.57;5.38;;;;;;;14.02;95.82;100766.50;12210930;19;20261;-82
2022/10/03 16:59:10;;;;;;;;;;;;;;;13.75;97.37;100760.75;12229833;19;20061;-82
2022/10/03 17:03:19;;;;;;;16.75;6.60;;;;;;;13.53;98.07;100755.03;12222910;19;19925;-81
2022/10/03 17:07:27;;;;;;;16.67;6.32;;;;;;;13.30;100.00;100751.28;12200556;19;20038;-82
2022/10/03 17:11:34;;;;;;;13.98;6.82;;;;;;;13.11;100.00;100755.25;12220400;19;20426;-82
2022/10/03 17:16:00;;;;;;;14.57;7.22;;;;;;;12.93;100.00;100743.22;12233169;19;20011;-83
2022/10/03 17:20:12;;;;;;;12.25;7.35;;;;;;;12.75;100.00;100738.69;12225826;19;20044;-82
2022/10/03 17:24:23;;;;;;;12.68;6.85;;;;;;;12.62;100.00;100733.41;12245613;19;20046;-82
2022/10/03 17:28:53;;;;;;;19.70;7.68;;;;;;;12.47;100.00;100731.13;12217369;19;19998;-82
2022/10/03 17:33:00;;;;;;;19.77;6.97;;;;;;;12.33;100.00;100737.97;12223448;19;20014;-81
2022/10/03 17:37:23;;;;;;;16.00;6.68;;;;;;;12.16;100.00;100732.28;12204435;19;20023;-82
2022/10/03 17:41:45;;;;;;;17.67;7.03;;;;;;;12.01;100.00;100737.44;12221866;19;20479;-82
2022/10/03 17:46:15;;;;;;;17.45;7.28;;;;;;;11.84;100.00;100740.00;12220272;19;20021;-83
2022/10/03 17:50:24;;;;;;;17.17;8.52;;;;;;;11.70;100.00;100742.13;12195355;19;20463;-80
2022/10/03 17:54:31;;;;;;;19.05;7.28;;;;;;;11.57;100.00;100737.63;12218459;19;20388;-81
2022/10/03 17:58:36;;;;;;;15.35;7.75;;;;;;;11.47;100.00;100739.25;12196877;19;20006;-81
2022/10/03 18:02:53;;;;;;;14.57;7.43;;;;;;;11.37;100.00;100734.31;12215599;19;20033;-81
2022/10/03 18:07:00;;;;;;;15.90;7.32;;;;;;;11.28;100.00;100724.66;12205100;19;20006;-83
2022/10/03 18:11:02;;;;;;;16.38;7.45;;;;;;;11.20;100.00;100723.06;12228535;19;20033;-84
2022/10/03 18:15:29;;;;;;;16.07;8.20;;;;;;;11.15;100.00;100723.75;12228392;19;20084;-84
2022/10/03 18:19:52;;;;;;;18.23;7.65;;;;;;;11.09;100.00;100729.34;12211635;19;20247;-84
2022/10/03 18:23:53;;;;;;;18.13;8.30;;;;;;;11.07;100.00;100734.28;12228617;19;20073;-84
2022/10/03 18:27:59;;;;;;;16.25;7.32;;;;;;;11.03;100.00;100730.25;12207433;19;20347;-84
2022/10/03 18:32:08;;;;;;;24.60;7.82;;;;;;;10.97;100.00;100722.91;12230515;19;20010;-84
2022/10/03 18:36:18;;;;;;;18.85;7.40;;;;;;;10.91;100.00;100721.91;12231436;19;20013;-84
2022/10/03 18:40:28;;;;;;;17.48;7.53;;;;;;;10.88;100.00;100733.41;12209100;19;20014;-83
2022/10/03 18:44:32;;;;;;;17.15;6.80;;;;;;;10.81;100.00;100730.72;12225807;19;20010;-84
2022/10/03 18:49:12;;;;;;;18.65;7.85;;;;;;;10.76;100.00;100738.84;12224945;19;20364;-84
2022/10/03 18:54:06;;;;;;;14.25;7.40;;;;;;;10.67;100.00;100730.03;12129230;19;2006130;-84
2022/10/03 18:58:24;;;;;;;21.42;8.27;;;;;;;10.61;100.00;100730.94;12198632;19;20438;-84
2022/10/03 19:02:34;;;;;;;24.00;7.70;;;;;;;10.56;100.00;100729.94;12224042;19;20157;-85
2022/10/03 19:06:40;;;;;;;16.60;8.18;;;;;;;10.52;100.00;100728.69;12226927;19;20018;-84
2022/10/03 19:10:57;;;;;;;21.02;7.57;;;;;;;10.47;100.00;100726.66;12204081;19;20488;-84
2022/10/03 19:15:33;;;;;;;16.52;7.95;;;;;;;10.43;100.00;100717.13;12227516;19;20019;-83
2022/10/03 19:19:48;;;;;;;17.42;7.72;;;;;;;10.38;100.00;100720.59;12204657;19;20023;-83
2022/10/03 19:24:01;;;;;;;22.15;7.60;;;;;;;10.35;100.00;100721.03;12227656;19;20034;-85
2022/10/03 19:28:21;;;;;;;21.38;9.18;;;;;;;10.31;100.00;100714.28;12205144;19;20030;-83
2022/10/03 19:32:34;;;;;;;21.50;7.50;;;;;;;10.30;100.00;100714.50;12222950;19;20011;-84
2022/10/03 19:36:38;;;;;;;23.07;7.63;;;;;;;10.28;100.00;100723.00;12228272;19;20038;-84
2022/10/03 19:40:50;;;;;;;19.70;9.10;;;;;;;10.27;100.00;100719.41;12204270;19;20002;-84
2022/10/03 19:44:57;;;;;;;19.23;9.37;;;;;;;10.31;100.00;100717.03;12227864;19;20014;-84
2022/10/03 19:49:17;;;;;;;18.00;8.05;;;;;;;10.35;100.00;100712.78;12207844;19;20036;-85
2022/10/03 19:53:19;;;;;;;23.80;8.38;;;;;;;10.38;100.00;100714.19;12223234;19;20011;-86
2022/10/03 19:57:36;;;;;;;22.92;8.30;;;;;;;10.39;100.00;100704.88;12223270;19;20053;-84
2022/10/03 20:01:46;;;;;;;28.13;8.48;;;;;;;10.39;100.00;100714.00;12198623;19;20029;-85